Arviat Airport
CYEK : rendu visible

Aérodrome :











RETROUVEZ-NOUS SUR...

 
LOGIN :

S'inscrire | Disclaimer

   EN    FR    IT 

 









Légende :    VFR   VFR Marginal   IFR   IFR Intensif   IFR Très Intensif
Visi : 
Plafond : 
>= 8 km
>= 3000ft
5 à 8 km
1000 à 3000 ft
1500m à 5 km
500 à 1000 ft
800 à 1500m
200 à 500 ft
< 800m
< 200 ft
Symboles :   Orages  Brouillard  Fortes neiges  Fortes précipitations  Vent > 20 kt






- Altitude de l'aérodrome : 32 ft
- Code IATA : YEK


CYEK - Arviat

DERNIER METAR :
  • 312000Z 30005KT 15SM OVC022 M01/M04 A3016 RMK SC8 AFT 18UTC/S TR/LAST STFD OBS/NXT 011200Z SLP214

METARs EXPIRÉS :
  • 311900Z 28004KT 260V320 15SM OVC022 M01/M03 A3015 RMK SC8 SLP213
  • 311837Z 31004KT 280V340 15SM OVC022 M01/M03 A3015 RMK SC8 SLP213
  • 311820Z 31005KT 260V320 15SM -SG OVC019 M01/M03 A3015 RMK ST8 SLP212
  • 311814Z CCA 30003KT 260V320 15SM -FZDZ BKN017 OVC022 M01/M03 A3015 RMK ST5SC3 SLP212
  • 311800Z 31003KT 290V350 15SM OVC022 M01/M04 A3015 RMK SC8 SLP212

TAF AMD TAF CYEK
Valide du 31 à 18h jusqu'au 01 à 06h UTC


311822Z 3118/0106 VRB03KT P6SM SCT015 OVC025
TEMPO 3118/0103 5SM -SN -FZDZ BKN015 OVC020
BECMG 3119/3121 18007KT
FM010300 VRB03KT P6SM SCT012 OVC025
TEMPO 0103/0106 P6SM -SN OVC012 RMK NXT FCST BY 010000Z
FIR CZEG / Amérique du Nord



MET'MAP, la Météo Aéronautique d'un coup d'oeil ! - Copyright ORBIFLY Décembre 2007 - Disclaimer

ORBIFLY MET'MAP TEAM :

Programmation & Développement : Alexandra Zaïnal
Sur une idée originale de : Baudouin d'Aumeries
Assistance à la programmation : Marc-Olivier Méhu
Soutien technique & logistique : Manuel Goepfert

Contact : metmap@orbifly.com




SOURCES & CREDITS :

   NOAA       Earth
Advisory